sensor_id;sensor_type;location;lat;lon;timestamp;P1;durP1;ratioP1;P2;durP2;ratioP2
30743;SDS011;17486;46.738;7.622;2022-12-11T00:01:56;30.73;;;22.00;;
30743;SDS011;17486;46.738;7.622;2022-12-11T00:04:21;26.83;;;18.80;;
30743;SDS011;17486;46.738;7.622;2022-12-11T00:06:47;29.08;;;19.65;;
30743;SDS011;17486;46.738;7.622;2022-12-11T00:09:16;28.40;;;19.92;;
30743;SDS011;17486;46.738;7.622;2022-12-11T00:11:42;30.65;;;20.90;;
30743;SDS011;17486;46.738;7.622;2022-12-11T00:14:08;29.45;;;20.30;;
30743;SDS011;17486;46.738;7.622;2022-12-11T00:16:34;33.85;;;22.45;;
30743;SDS011;17486;46.738;7.622;2022-12-11T00:18:59;30.73;;;21.42;;
30743;SDS011;17486;46.738;7.622;2022-12-11T00:21:24;28.80;;;20.27;;
30743;SDS011;17486;46.738;7.622;2022-12-11T00:23:50;30.55;;;20.80;;
30743;SDS011;17486;46.738;7.622;2022-12-11T00:26:15;28.27;;;20.55;;
30743;SDS011;17486;46.738;7.622;2022-12-11T00:28:42;29.58;;;21.27;;
30743;SDS011;17486;46.738;7.622;2022-12-11T00:31:10;28.88;;;20.75;;
30743;SDS011;17486;46.738;7.622;2022-12-11T00:33:38;32.35;;;21.42;;
30743;SDS011;17486;46.738;7.622;2022-12-11T00:36:08;30.75;;;21.63;;
30743;SDS011;17486;46.738;7.622;2022-12-11T00:38:38;30.00;;;21.10;;
30743;SDS011;17486;46.738;7.622;2022-12-11T00:41:04;32.25;;;21.98;;
30743;SDS011;17486;46.738;7.622;2022-12-11T00:43:30;30.33;;;21.60;;
30743;SDS011;17486;46.738;7.622;2022-12-11T00:45:55;30.52;;;21.05;;
30743;SDS011;17486;46.738;7.622;2022-12-11T00:48:21;32.00;;;21.35;;
30743;SDS011;17486;46.738;7.622;2022-12-11T00:50:46;30.08;;;20.95;;
30743;SDS011;17486;46.738;7.622;2022-12-11T00:53:12;30.83;;;22.15;;
30743;SDS011;17486;46.738;7.622;2022-12-11T00:55:38;30.67;;;21.23;;
30743;SDS011;17486;46.738;7.622;2022-12-11T00:58:05;31.00;;;21.23;;
30743;SDS011;17486;46.738;7.622;2022-12-11T01:00:31;30.27;;;20.70;;
30743;SDS011;17486;46.738;7.622;2022-12-11T01:02:56;31.60;;;20.80;;
30743;SDS011;17486;46.738;7.622;2022-12-11T01:05:22;31.95;;;20.88;;
30743;SDS011;17486;46.738;7.622;2022-12-11T01:07:47;30.23;;;21.85;;
30743;SDS011;17486;46.738;7.622;2022-12-11T01:10:13;31.02;;;21.70;;
30743;SDS011;17486;46.738;7.622;2022-12-11T01:15:20;31.23;;;21.38;;
30743;SDS011;17486;46.738;7.622;2022-12-11T01:17:49;30.65;;;21.25;;
30743;SDS011;17486;46.738;7.622;2022-12-11T01:20:17;31.88;;;21.42;;
30743;SDS011;17486;46.738;7.622;2022-12-11T01:22:44;29.55;;;19.98;;
30743;SDS011;17486;46.738;7.622;2022-12-11T01:25:10;29.73;;;21.02;;
30743;SDS011;17486;46.738;7.622;2022-12-11T01:27:36;30.00;;;21.30;;
30743;SDS011;17486;46.738;7.622;2022-12-11T01:30:03;29.88;;;21.23;;
30743;SDS011;17486;46.738;7.622;2022-12-11T01:32:32;30.27;;;20.75;;
30743;SDS011;17486;46.738;7.622;2022-12-11T01:34:58;30.40;;;19.83;;
30743;SDS011;17486;46.738;7.622;2022-12-11T01:37:23;31.08;;;21.30;;
30743;SDS011;17486;46.738;7.622;2022-12-11T01:39:49;32.85;;;21.85;;
30743;SDS011;17486;46.738;7.622;2022-12-11T01:42:16;32.53;;;22.58;;
30743;SDS011;17486;46.738;7.622;2022-12-11T01:47:08;30.35;;;20.77;;
30743;SDS011;17486;46.738;7.622;2022-12-11T01:49:34;29.55;;;20.75;;
30743;SDS011;17486;46.738;7.622;2022-12-11T01:52:08;29.52;;;21.33;;
30743;SDS011;17486;46.738;7.622;2022-12-11T01:54:37;29.17;;;20.85;;
30743;SDS011;17486;46.738;7.622;2022-12-11T01:57:03;29.58;;;20.13;;
30743;SDS011;17486;46.738;7.622;2022-12-11T01:59:33;29.00;;;19.98;;
30743;SDS011;17486;46.738;7.622;2022-12-11T02:02:15;30.33;;;19.55;;
30743;SDS011;17486;46.738;7.622;2022-12-11T02:04:45;28.40;;;20.35;;
30743;SDS011;17486;46.738;7.622;2022-12-11T02:07:12;29.58;;;20.80;;
30743;SDS011;17486;46.738;7.622;2022-12-11T02:09:38;29.58;;;20.15;;
30743;SDS011;17486;46.738;7.622;2022-12-11T02:12:22;28.15;;;20.25;;
30743;SDS011;17486;46.738;7.622;2022-12-11T02:14:59;26.98;;;19.33;;
30743;SDS011;17486;46.738;7.622;2022-12-11T02:20:37;29.98;;;20.60;;
30743;SDS011;17486;46.738;7.622;2022-12-11T02:23:20;30.10;;;20.40;;
30743;SDS011;17486;46.738;7.622;2022-12-11T02:31:16;31.35;;;19.63;;
30743;SDS011;17486;46.738;7.622;2022-12-11T02:34:02;28.75;;;19.77;;
30743;SDS011;17486;46.738;7.622;2022-12-11T02:36:34;28.30;;;19.45;;
30743;SDS011;17486;46.738;7.622;2022-12-11T02:39:03;28.13;;;19.70;;
30743;SDS011;17486;46.738;7.622;2022-12-11T02:41:31;28.50;;;20.38;;
30743;SDS011;17486;46.738;7.622;2022-12-11T02:43:58;29.30;;;20.20;;
30743;SDS011;17486;46.738;7.622;2022-12-11T02:46:26;31.50;;;21.50;;
30743;SDS011;17486;46.738;7.622;2022-12-11T02:48:53;29.85;;;20.65;;
30743;SDS011;17486;46.738;7.622;2022-12-11T02:51:22;32.55;;;21.15;;
30743;SDS011;17486;46.738;7.622;2022-12-11T02:53:53;31.80;;;21.70;;
30743;SDS011;17486;46.738;7.622;2022-12-11T02:56:29;29.05;;;19.80;;
30743;SDS011;17486;46.738;7.622;2022-12-11T02:59:04;28.48;;;19.98;;
30743;SDS011;17486;46.738;7.622;2022-12-11T03:01:35;28.70;;;20.10;;
30743;SDS011;17486;46.738;7.622;2022-12-11T03:04:00;27.55;;;20.00;;
30743;SDS011;17486;46.738;7.622;2022-12-11T03:06:28;28.63;;;20.13;;
30743;SDS011;17486;46.738;7.622;2022-12-11T03:09:00;31.23;;;21.23;;
30743;SDS011;17486;46.738;7.622;2022-12-11T03:11:26;28.77;;;19.85;;
30743;SDS011;17486;46.738;7.622;2022-12-11T03:13:51;33.72;;;22.23;;
30743;SDS011;17486;46.738;7.622;2022-12-11T03:16:34;33.67;;;21.65;;
30743;SDS011;17486;46.738;7.622;2022-12-11T03:24:52;30.20;;;21.30;;
30743;SDS011;17486;46.738;7.622;2022-12-11T03:27:35;31.35;;;20.48;;
30743;SDS011;17486;46.738;7.622;2022-12-11T03:30:22;33.00;;;21.23;;
30743;SDS011;17486;46.738;7.622;2022-12-11T03:35:38;30.65;;;20.45;;
30743;SDS011;17486;46.738;7.622;2022-12-11T03:38:15;34.72;;;22.30;;
30743;SDS011;17486;46.738;7.622;2022-12-11T03:40:46;31.40;;;20.50;;
30743;SDS011;17486;46.738;7.622;2022-12-11T03:43:15;30.40;;;20.60;;
30743;SDS011;17486;46.738;7.622;2022-12-11T03:45:41;29.13;;;20.25;;
30743;SDS011;17486;46.738;7.622;2022-12-11T03:48:09;29.23;;;20.60;;
30743;SDS011;17486;46.738;7.622;2022-12-11T03:50:36;28.60;;;20.25;;
30743;SDS011;17486;46.738;7.622;2022-12-11T03:53:02;28.52;;;20.95;;
30743;SDS011;17486;46.738;7.622;2022-12-11T03:55:29;29.38;;;19.88;;
30743;SDS011;17486;46.738;7.622;2022-12-11T03:57:57;31.58;;;20.13;;
30743;SDS011;17486;46.738;7.622;2022-12-11T04:00:22;28.70;;;19.65;;
30743;SDS011;17486;46.738;7.622;2022-12-11T04:02:48;29.05;;;20.08;;
30743;SDS011;17486;46.738;7.622;2022-12-11T04:05:34;27.50;;;18.90;;
30743;SDS011;17486;46.738;7.622;2022-12-11T04:07:59;30.42;;;19.77;;
30743;SDS011;17486;46.738;7.622;2022-12-11T04:10:25;28.67;;;20.10;;
30743;SDS011;17486;46.738;7.622;2022-12-11T04:12:51;30.70;;;20.73;;
30743;SDS011;17486;46.738;7.622;2022-12-11T04:15:16;28.27;;;19.00;;
30743;SDS011;17486;46.738;7.622;2022-12-11T04:17:42;30.63;;;20.70;;
30743;SDS011;17486;46.738;7.622;2022-12-11T04:20:26;28.48;;;19.65;;
30743;SDS011;17486;46.738;7.622;2022-12-11T04:23:14;29.90;;;19.63;;
30743;SDS011;17486;46.738;7.622;2022-12-11T04:26:07;30.17;;;19.98;;
30743;SDS011;17486;46.738;7.622;2022-12-11T04:28:32;31.63;;;19.85;;
30743;SDS011;17486;46.738;7.622;2022-12-11T04:30:58;29.45;;;20.30;;
30743;SDS011;17486;46.738;7.622;2022-12-11T04:33:23;28.00;;;19.90;;
30743;SDS011;17486;46.738;7.622;2022-12-11T04:35:49;32.83;;;21.02;;
30743;SDS011;17486;46.738;7.622;2022-12-11T04:38:14;27.85;;;19.90;;
30743;SDS011;17486;46.738;7.622;2022-12-11T04:40:39;30.40;;;20.67;;
30743;SDS011;17486;46.738;7.622;2022-12-11T04:43:05;30.80;;;19.75;;
30743;SDS011;17486;46.738;7.622;2022-12-11T04:45:30;32.22;;;20.77;;
30743;SDS011;17486;46.738;7.622;2022-12-11T04:47:56;28.15;;;20.33;;
30743;SDS011;17486;46.738;7.622;2022-12-11T04:50:21;27.98;;;19.33;;
30743;SDS011;17486;46.738;7.622;2022-12-11T04:52:47;30.40;;;20.38;;
30743;SDS011;17486;46.738;7.622;2022-12-11T04:55:12;28.77;;;19.20;;
30743;SDS011;17486;46.738;7.622;2022-12-11T04:57:38;27.60;;;18.75;;
30743;SDS011;17486;46.738;7.622;2022-12-11T05:00:04;29.95;;;19.83;;
30743;SDS011;17486;46.738;7.622;2022-12-11T05:02:35;29.63;;;19.77;;
30743;SDS011;17486;46.738;7.622;2022-12-11T05:05:01;32.75;;;20.23;;
30743;SDS011;17486;46.738;7.622;2022-12-11T05:07:31;28.58;;;20.00;;
30743;SDS011;17486;46.738;7.622;2022-12-11T05:09:56;28.70;;;19.58;;
30743;SDS011;17486;46.738;7.622;2022-12-11T05:12:22;29.35;;;19.67;;
30743;SDS011;17486;46.738;7.622;2022-12-11T05:14:50;33.50;;;21.13;;
30743;SDS011;17486;46.738;7.622;2022-12-11T05:17:16;30.58;;;20.23;;
30743;SDS011;17486;46.738;7.622;2022-12-11T05:19:41;32.33;;;19.75;;
30743;SDS011;17486;46.738;7.622;2022-12-11T05:22:07;31.60;;;21.00;;
30743;SDS011;17486;46.738;7.622;2022-12-11T05:24:32;30.98;;;20.17;;
30743;SDS011;17486;46.738;7.622;2022-12-11T05:26:57;32.92;;;21.48;;
30743;SDS011;17486;46.738;7.622;2022-12-11T05:29:23;32.42;;;21.77;;
30743;SDS011;17486;46.738;7.622;2022-12-11T05:31:48;30.63;;;20.75;;
30743;SDS011;17486;46.738;7.622;2022-12-11T05:34:14;31.40;;;21.17;;
30743;SDS011;17486;46.738;7.622;2022-12-11T05:36:40;29.17;;;20.95;;
30743;SDS011;17486;46.738;7.622;2022-12-11T05:39:05;29.38;;;20.77;;
30743;SDS011;17486;46.738;7.622;2022-12-11T05:41:31;30.13;;;21.20;;
30743;SDS011;17486;46.738;7.622;2022-12-11T05:43:57;32.05;;;21.42;;
30743;SDS011;17486;46.738;7.622;2022-12-11T05:46:24;32.63;;;22.05;;
30743;SDS011;17486;46.738;7.622;2022-12-11T05:48:51;31.30;;;20.58;;
30743;SDS011;17486;46.738;7.622;2022-12-11T05:51:19;29.80;;;20.23;;
30743;SDS011;17486;46.738;7.622;2022-12-11T05:53:45;32.47;;;21.45;;
30743;SDS011;17486;46.738;7.622;2022-12-11T05:56:13;31.15;;;20.30;;
30743;SDS011;17486;46.738;7.622;2022-12-11T05:58:41;29.98;;;20.88;;
30743;SDS011;17486;46.738;7.622;2022-12-11T06:01:14;30.15;;;20.23;;
30743;SDS011;17486;46.738;7.622;2022-12-11T06:03:42;36.03;;;22.65;;
30743;SDS011;17486;46.738;7.622;2022-12-11T06:06:08;31.17;;;20.75;;
30743;SDS011;17486;46.738;7.622;2022-12-11T06:08:34;31.10;;;20.33;;
30743;SDS011;17486;46.738;7.622;2022-12-11T06:11:01;30.95;;;19.77;;
30743;SDS011;17486;46.738;7.622;2022-12-11T06:13:27;30.08;;;20.20;;
30743;SDS011;17486;46.738;7.622;2022-12-11T06:15:52;31.20;;;20.58;;
30743;SDS011;17486;46.738;7.622;2022-12-11T06:18:19;31.60;;;20.30;;
30743;SDS011;17486;46.738;7.622;2022-12-11T06:20:44;28.58;;;20.13;;
30743;SDS011;17486;46.738;7.622;2022-12-11T06:23:09;28.45;;;20.13;;
30743;SDS011;17486;46.738;7.622;2022-12-11T06:25:37;31.92;;;21.70;;
30743;SDS011;17486;46.738;7.622;2022-12-11T06:28:02;31.35;;;20.48;;
30743;SDS011;17486;46.738;7.622;2022-12-11T06:30:28;30.48;;;20.92;;
30743;SDS011;17486;46.738;7.622;2022-12-11T06:32:54;29.08;;;20.27;;
30743;SDS011;17486;46.738;7.622;2022-12-11T06:35:19;30.52;;;20.73;;
30743;SDS011;17486;46.738;7.622;2022-12-11T06:37:45;30.48;;;20.40;;
30743;SDS011;17486;46.738;7.622;2022-12-11T06:40:11;33.45;;;20.55;;
30743;SDS011;17486;46.738;7.622;2022-12-11T06:42:37;29.00;;;20.02;;
30743;SDS011;17486;46.738;7.622;2022-12-11T06:45:03;31.55;;;20.58;;
30743;SDS011;17486;46.738;7.622;2022-12-11T06:47:28;29.80;;;19.45;;
30743;SDS011;17486;46.738;7.622;2022-12-11T06:49:54;28.88;;;18.88;;
30743;SDS011;17486;46.738;7.622;2022-12-11T06:52:21;30.90;;;19.42;;
30743;SDS011;17486;46.738;7.622;2022-12-11T06:54:47;28.08;;;19.65;;
30743;SDS011;17486;46.738;7.622;2022-12-11T06:57:13;26.13;;;18.33;;
30743;SDS011;17486;46.738;7.622;2022-12-11T06:59:39;32.67;;;20.27;;
30743;SDS011;17486;46.738;7.622;2022-12-11T07:02:04;26.35;;;18.02;;
30743;SDS011;17486;46.738;7.622;2022-12-11T07:04:30;24.50;;;17.08;;
30743;SDS011;17486;46.738;7.622;2022-12-11T07:06:55;29.40;;;19.30;;
30743;SDS011;17486;46.738;7.622;2022-12-11T07:09:21;28.08;;;18.30;;
30743;SDS011;17486;46.738;7.622;2022-12-11T07:11:48;29.17;;;18.95;;
30743;SDS011;17486;46.738;7.622;2022-12-11T07:14:17;29.15;;;19.30;;
30743;SDS011;17486;46.738;7.622;2022-12-11T07:16:44;26.98;;;17.83;;
30743;SDS011;17486;46.738;7.622;2022-12-11T07:19:09;23.13;;;16.23;;
30743;SDS011;17486;46.738;7.622;2022-12-11T07:21:35;23.77;;;16.92;;
30743;SDS011;17486;46.738;7.622;2022-12-11T07:24:00;24.48;;;16.02;;
30743;SDS011;17486;46.738;7.622;2022-12-11T07:26:26;26.63;;;17.20;;
30743;SDS011;17486;46.738;7.622;2022-12-11T07:28:51;22.80;;;15.45;;
30743;SDS011;17486;46.738;7.622;2022-12-11T07:31:18;23.25;;;16.15;;
30743;SDS011;17486;46.738;7.622;2022-12-11T07:33:46;24.60;;;15.95;;
30743;SDS011;17486;46.738;7.622;2022-12-11T07:36:12;23.27;;;15.43;;
30743;SDS011;17486;46.738;7.622;2022-12-11T07:38:39;22.20;;;15.73;;
30743;SDS011;17486;46.738;7.622;2022-12-11T07:41:05;24.85;;;16.63;;
30743;SDS011;17486;46.738;7.622;2022-12-11T07:43:33;26.08;;;16.75;;
30743;SDS011;17486;46.738;7.622;2022-12-11T07:46:00;25.10;;;16.58;;
30743;SDS011;17486;46.738;7.622;2022-12-11T07:48:30;28.63;;;16.85;;
30743;SDS011;17486;46.738;7.622;2022-12-11T07:51:05;28.50;;;17.65;;
30743;SDS011;17486;46.738;7.622;2022-12-11T07:53:52;26.15;;;17.05;;
30743;SDS011;17486;46.738;7.622;2022-12-11T07:56:19;29.98;;;17.58;;
30743;SDS011;17486;46.738;7.622;2022-12-11T07:58:45;25.25;;;17.38;;
30743;SDS011;17486;46.738;7.622;2022-12-11T08:01:12;27.58;;;17.05;;
30743;SDS011;17486;46.738;7.622;2022-12-11T08:03:40;25.58;;;16.75;;
30743;SDS011;17486;46.738;7.622;2022-12-11T08:06:06;26.58;;;17.60;;
30743;SDS011;17486;46.738;7.622;2022-12-11T08:08:33;31.35;;;21.58;;
30743;SDS011;17486;46.738;7.622;2022-12-11T08:11:02;46.60;;;29.38;;
30743;SDS011;17486;46.738;7.622;2022-12-11T08:13:29;47.42;;;30.20;;
30743;SDS011;17486;46.738;7.622;2022-12-11T08:15:55;33.60;;;23.02;;
30743;SDS011;17486;46.738;7.622;2022-12-11T08:18:20;25.95;;;17.88;;
30743;SDS011;17486;46.738;7.622;2022-12-11T08:20:46;27.73;;;18.52;;
30743;SDS011;17486;46.738;7.622;2022-12-11T08:23:11;28.77;;;18.10;;
30743;SDS011;17486;46.738;7.622;2022-12-11T08:25:37;26.73;;;17.83;;
30743;SDS011;17486;46.738;7.622;2022-12-11T08:28:02;24.48;;;17.75;;
30743;SDS011;17486;46.738;7.622;2022-12-11T08:30:28;24.20;;;17.25;;
30743;SDS011;17486;46.738;7.622;2022-12-11T08:32:53;27.58;;;15.80;;
30743;SDS011;17486;46.738;7.622;2022-12-11T08:35:19;22.00;;;16.38;;
30743;SDS011;17486;46.738;7.622;2022-12-11T08:37:45;23.38;;;16.60;;
30743;SDS011;17486;46.738;7.622;2022-12-11T08:40:10;23.05;;;15.77;;
30743;SDS011;17486;46.738;7.622;2022-12-11T08:42:36;23.90;;;15.68;;
30743;SDS011;17486;46.738;7.622;2022-12-11T08:45:03;25.20;;;15.70;;
30743;SDS011;17486;46.738;7.622;2022-12-11T08:47:28;24.75;;;16.58;;
30743;SDS011;17486;46.738;7.622;2022-12-11T08:49:54;29.55;;;19.85;;
30743;SDS011;17486;46.738;7.622;2022-12-11T08:52:19;26.50;;;17.40;;
30743;SDS011;17486;46.738;7.622;2022-12-11T08:54:44;188.52;;;135.50;;
30743;SDS011;17486;46.738;7.622;2022-12-11T08:57:10;208.30;;;134.65;;
30743;SDS011;17486;46.738;7.622;2022-12-11T08:59:35;200.10;;;122.15;;
30743;SDS011;17486;46.738;7.622;2022-12-11T09:02:01;233.88;;;135.63;;
30743;SDS011;17486;46.738;7.622;2022-12-11T09:04:26;278.20;;;158.15;;
30743;SDS011;17486;46.738;7.622;2022-12-11T09:06:51;156.13;;;93.63;;
30743;SDS011;17486;46.738;7.622;2022-12-11T09:09:17;95.50;;;59.35;;
30743;SDS011;17486;46.738;7.622;2022-12-11T09:11:42;55.33;;;36.65;;
30743;SDS011;17486;46.738;7.622;2022-12-11T09:14:08;33.13;;;25.40;;
30743;SDS011;17486;46.738;7.622;2022-12-11T09:16:33;29.60;;;21.80;;
30743;SDS011;17486;46.738;7.622;2022-12-11T09:19:02;24.02;;;16.92;;
30743;SDS011;17486;46.738;7.622;2022-12-11T09:21:28;22.45;;;15.82;;
30743;SDS011;17486;46.738;7.622;2022-12-11T09:23:54;22.67;;;15.88;;
30743;SDS011;17486;46.738;7.622;2022-12-11T09:26:22;22.98;;;15.65;;
30743;SDS011;17486;46.738;7.622;2022-12-11T09:28:47;23.00;;;15.98;;
30743;SDS011;17486;46.738;7.622;2022-12-11T09:31:18;20.30;;;15.02;;
30743;SDS011;17486;46.738;7.622;2022-12-11T09:33:47;22.13;;;15.52;;
30743;SDS011;17486;46.738;7.622;2022-12-11T09:36:14;22.98;;;16.08;;
30743;SDS011;17486;46.738;7.622;2022-12-11T09:38:39;23.52;;;15.88;;
30743;SDS011;17486;46.738;7.622;2022-12-11T09:43:48;22.67;;;15.30;;
30743;SDS011;17486;46.738;7.622;2022-12-11T09:46:18;20.77;;;14.38;;
30743;SDS011;17486;46.738;7.622;2022-12-11T09:48:45;20.92;;;14.90;;
30743;SDS011;17486;46.738;7.622;2022-12-11T09:51:26;25.67;;;16.77;;
30743;SDS011;17486;46.738;7.622;2022-12-11T09:54:00;21.48;;;15.48;;
30743;SDS011;17486;46.738;7.622;2022-12-11T09:56:48;22.77;;;16.48;;
30743;SDS011;17486;46.738;7.622;2022-12-11T09:59:24;21.63;;;15.98;;
30743;SDS011;17486;46.738;7.622;2022-12-11T10:13:44;71.78;;;43.13;;
30743;SDS011;17486;46.738;7.622;2022-12-11T10:19:40;156.38;;;90.10;;
30743;SDS011;17486;46.738;7.622;2022-12-11T10:22:09;281.00;;;161.52;;
30743;SDS011;17486;46.738;7.622;2022-12-11T10:24:52;200.98;;;107.05;;
30743;SDS011;17486;46.738;7.622;2022-12-11T10:27:21;81.97;;;46.38;;
30743;SDS011;17486;46.738;7.622;2022-12-11T10:32:42;28.05;;;18.65;;
30743;SDS011;17486;46.738;7.622;2022-12-11T10:38:09;22.30;;;15.55;;
30743;SDS011;17486;46.738;7.622;2022-12-11T10:40:53;21.20;;;15.43;;
30743;SDS011;17486;46.738;7.622;2022-12-11T10:43:35;21.13;;;15.73;;
30743;SDS011;17486;46.738;7.622;2022-12-11T10:46:01;22.10;;;16.48;;
30743;SDS011;17486;46.738;7.622;2022-12-11T10:48:27;24.45;;;16.77;;
30743;SDS011;17486;46.738;7.622;2022-12-11T10:50:56;21.33;;;16.27;;
30743;SDS011;17486;46.738;7.622;2022-12-11T10:53:24;20.52;;;15.65;;
30743;SDS011;17486;46.738;7.622;2022-12-11T10:55:50;21.02;;;16.63;;
30743;SDS011;17486;46.738;7.622;2022-12-11T10:58:18;22.85;;;17.65;;
30743;SDS011;17486;46.738;7.622;2022-12-11T11:00:48;20.15;;;14.85;;
30743;SDS011;17486;46.738;7.622;2022-12-11T11:03:27;22.63;;;15.82;;
30743;SDS011;17486;46.738;7.622;2022-12-11T11:08:40;21.00;;;15.98;;
30743;SDS011;17486;46.738;7.622;2022-12-11T11:11:48;20.10;;;15.57;;
30743;SDS011;17486;46.738;7.622;2022-12-11T11:14:06;20.13;;;15.30;;
30743;SDS011;17486;46.738;7.622;2022-12-11T11:16:31;20.85;;;15.90;;
30743;SDS011;17486;46.738;7.622;2022-12-11T11:19:01;23.40;;;16.02;;
30743;SDS011;17486;46.738;7.622;2022-12-11T11:21:27;123.00;;;73.53;;
30743;SDS011;17486;46.738;7.622;2022-12-11T11:23:54;175.57;;;109.50;;
30743;SDS011;17486;46.738;7.622;2022-12-11T11:26:20;223.10;;;134.15;;
30743;SDS011;17486;46.738;7.622;2022-12-11T11:28:50;106.95;;;65.65;;
30743;SDS011;17486;46.738;7.622;2022-12-11T11:31:18;35.60;;;23.63;;
30743;SDS011;17486;46.738;7.622;2022-12-11T11:36:25;18.05;;;15.00;;
30743;SDS011;17486;46.738;7.622;2022-12-11T11:41:24;20.00;;;15.65;;
30743;SDS011;17486;46.738;7.622;2022-12-11T11:43:57;21.25;;;16.10;;
30743;SDS011;17486;46.738;7.622;2022-12-11T11:49:16;18.02;;;15.50;;
30743;SDS011;17486;46.738;7.622;2022-12-11T11:51:56;18.42;;;14.75;;
30743;SDS011;17486;46.738;7.622;2022-12-11T11:54:34;19.52;;;15.30;;
30743;SDS011;17486;46.738;7.622;2022-12-11T12:00:16;18.77;;;15.25;;
30743;SDS011;17486;46.738;7.622;2022-12-11T12:02:50;19.40;;;14.73;;
30743;SDS011;17486;46.738;7.622;2022-12-11T12:05:22;18.10;;;14.93;;
30743;SDS011;17486;46.738;7.622;2022-12-11T12:08:09;18.52;;;15.60;;
30743;SDS011;17486;46.738;7.622;2022-12-11T12:10:49;19.90;;;16.10;;
30743;SDS011;17486;46.738;7.622;2022-12-11T12:13:27;18.40;;;15.07;;
30743;SDS011;17486;46.738;7.622;2022-12-11T12:16:01;19.77;;;15.68;;
30743;SDS011;17486;46.738;7.622;2022-12-11T12:18:46;20.25;;;15.70;;
30743;SDS011;17486;46.738;7.622;2022-12-11T12:26:28;49.17;;;36.13;;
30743;SDS011;17486;46.738;7.622;2022-12-11T12:45:24;20.20;;;16.13;;
30743;SDS011;17486;46.738;7.622;2022-12-11T12:47:55;18.48;;;15.25;;
30743;SDS011;17486;46.738;7.622;2022-12-11T12:50:21;19.15;;;16.65;;
30743;SDS011;17486;46.738;7.622;2022-12-11T12:52:55;20.05;;;15.63;;
30743;SDS011;17486;46.738;7.622;2022-12-11T12:55:25;18.73;;;15.48;;
30743;SDS011;17486;46.738;7.622;2022-12-11T12:57:54;20.05;;;16.55;;
30743;SDS011;17486;46.738;7.622;2022-12-11T13:00:25;19.58;;;16.63;;
30743;SDS011;17486;46.738;7.622;2022-12-11T13:02:53;19.85;;;16.77;;
30743;SDS011;17486;46.738;7.622;2022-12-11T13:05:27;19.65;;;16.95;;
30743;SDS011;17486;46.738;7.622;2022-12-11T13:07:57;18.20;;;15.85;;
30743;SDS011;17486;46.738;7.622;2022-12-11T13:13:00;18.20;;;16.08;;
30743;SDS011;17486;46.738;7.622;2022-12-11T13:21:00;18.67;;;15.63;;
30743;SDS011;17486;46.738;7.622;2022-12-11T13:23:48;18.73;;;16.05;;
30743;SDS011;17486;46.738;7.622;2022-12-11T13:26:37;18.95;;;15.73;;
30743;SDS011;17486;46.738;7.622;2022-12-11T13:29:03;17.20;;;15.48;;
30743;SDS011;17486;46.738;7.622;2022-12-11T13:31:38;81.53;;;62.25;;
30743;SDS011;17486;46.738;7.622;2022-12-11T13:34:20;66.55;;;47.92;;
30743;SDS011;17486;46.738;7.622;2022-12-11T13:36:50;117.35;;;81.57;;
30743;SDS011;17486;46.738;7.622;2022-12-11T13:39:23;37.47;;;31.17;;
30743;SDS011;17486;46.738;7.622;2022-12-11T13:41:54;17.38;;;15.68;;
30743;SDS011;17486;46.738;7.622;2022-12-11T13:44:28;16.17;;;14.68;;
30743;SDS011;17486;46.738;7.622;2022-12-11T13:47:06;16.73;;;15.13;;
30743;SDS011;17486;46.738;7.622;2022-12-11T13:49:39;14.48;;;13.18;;
30743;SDS011;17486;46.738;7.622;2022-12-11T13:52:20;16.37;;;14.77;;
30743;SDS011;17486;46.738;7.622;2022-12-11T13:54:51;15.00;;;13.48;;
30743;SDS011;17486;46.738;7.622;2022-12-11T13:57:21;13.90;;;12.60;;
30743;SDS011;17486;46.738;7.622;2022-12-11T13:59:51;16.05;;;14.55;;
30743;SDS011;17486;46.738;7.622;2022-12-11T14:02:37;15.35;;;13.95;;
30743;SDS011;17486;46.738;7.622;2022-12-11T14:05:07;108.30;;;87.93;;
30743;SDS011;17486;46.738;7.622;2022-12-11T14:07:42;126.15;;;89.43;;
30743;SDS011;17486;46.738;7.622;2022-12-11T14:10:17;193.38;;;141.10;;
30743;SDS011;17486;46.738;7.622;2022-12-11T14:12:52;102.63;;;82.07;;
30743;SDS011;17486;46.738;7.622;2022-12-11T14:15:30;26.02;;;23.15;;
30743;SDS011;17486;46.738;7.622;2022-12-11T14:18:01;101.70;;;70.03;;
30743;SDS011;17486;46.738;7.622;2022-12-11T14:20:31;41.50;;;30.70;;
30743;SDS011;17486;46.738;7.622;2022-12-11T14:23:06;26.65;;;21.73;;
30743;SDS011;17486;46.738;7.622;2022-12-11T14:25:50;27.73;;;22.33;;
30743;SDS011;17486;46.738;7.622;2022-12-11T14:28:22;30.98;;;24.73;;
30743;SDS011;17486;46.738;7.622;2022-12-11T14:30:52;31.33;;;24.98;;
30743;SDS011;17486;46.738;7.622;2022-12-11T14:33:21;28.85;;;22.55;;
30743;SDS011;17486;46.738;7.622;2022-12-11T14:35:50;25.38;;;20.63;;
30743;SDS011;17486;46.738;7.622;2022-12-11T14:38:20;24.75;;;19.05;;
30743;SDS011;17486;46.738;7.622;2022-12-11T14:40:57;28.13;;;19.90;;
30743;SDS011;17486;46.738;7.622;2022-12-11T14:43:41;25.20;;;18.83;;
30743;SDS011;17486;46.738;7.622;2022-12-11T14:46:16;25.42;;;18.67;;
30743;SDS011;17486;46.738;7.622;2022-12-11T14:48:47;26.88;;;18.85;;
30743;SDS011;17486;46.738;7.622;2022-12-11T14:51:23;24.88;;;18.23;;
30743;SDS011;17486;46.738;7.622;2022-12-11T14:53:52;25.38;;;18.90;;
30743;SDS011;17486;46.738;7.622;2022-12-11T14:56:20;25.77;;;18.27;;
30743;SDS011;17486;46.738;7.622;2022-12-11T14:58:52;27.08;;;18.00;;
30743;SDS011;17486;46.738;7.622;2022-12-11T15:01:37;23.40;;;16.63;;
30743;SDS011;17486;46.738;7.622;2022-12-11T15:04:18;23.38;;;17.00;;
30743;SDS011;17486;46.738;7.622;2022-12-11T15:06:48;24.15;;;17.00;;
30743;SDS011;17486;46.738;7.622;2022-12-11T15:12:12;25.90;;;16.75;;
30743;SDS011;17486;46.738;7.622;2022-12-11T15:14:53;26.20;;;18.05;;
30743;SDS011;17486;46.738;7.622;2022-12-11T15:17:21;23.05;;;17.58;;
30743;SDS011;17486;46.738;7.622;2022-12-11T15:19:50;24.42;;;17.40;;
30743;SDS011;17486;46.738;7.622;2022-12-11T15:22:18;28.63;;;18.60;;
30743;SDS011;17486;46.738;7.622;2022-12-11T15:24:49;28.77;;;19.33;;
30743;SDS011;17486;46.738;7.622;2022-12-11T15:29:48;26.17;;;17.83;;
30743;SDS011;17486;46.738;7.622;2022-12-11T15:39:55;23.92;;;16.60;;
30743;SDS011;17486;46.738;7.622;2022-12-11T15:42:23;25.48;;;17.88;;
30743;SDS011;17486;46.738;7.622;2022-12-11T15:44:59;62.40;;;37.92;;
30743;SDS011;17486;46.738;7.622;2022-12-11T15:47:27;72.95;;;44.58;;
30743;SDS011;17486;46.738;7.622;2022-12-11T15:49:58;66.90;;;39.05;;
30743;SDS011;17486;46.738;7.622;2022-12-11T15:52:25;40.83;;;25.83;;
30743;SDS011;17486;46.738;7.622;2022-12-11T15:54:51;31.85;;;20.15;;
30743;SDS011;17486;46.738;7.622;2022-12-11T15:57:18;26.23;;;17.45;;
30743;SDS011;17486;46.738;7.622;2022-12-11T15:59:45;26.25;;;18.10;;
30743;SDS011;17486;46.738;7.622;2022-12-11T16:02:15;26.05;;;17.45;;
30743;SDS011;17486;46.738;7.622;2022-12-11T16:04:41;27.55;;;18.55;;
30743;SDS011;17486;46.738;7.622;2022-12-11T16:07:17;30.10;;;20.25;;
30743;SDS011;17486;46.738;7.622;2022-12-11T16:09:45;30.17;;;19.95;;
30743;SDS011;17486;46.738;7.622;2022-12-11T16:12:10;36.70;;;24.55;;
30743;SDS011;17486;46.738;7.622;2022-12-11T16:14:37;34.03;;;22.88;;
30743;SDS011;17486;46.738;7.622;2022-12-11T16:17:06;35.70;;;22.50;;